sensor_id;sensor_type;location;lat;lon;timestamp;temperature;humidity
6373;DHT22;3219;51.362;7.074;2022-08-21T00:00:20;18.40;99.90
6373;DHT22;3219;51.362;7.074;2022-08-21T00:02:49;18.40;99.90
6373;DHT22;3219;51.362;7.074;2022-08-21T00:05:17;18.40;99.90
6373;DHT22;3219;51.362;7.074;2022-08-21T00:07:44;18.20;99.90
6373;DHT22;3219;51.362;7.074;2022-08-21T00:10:12;18.40;99.90
6373;DHT22;3219;51.362;7.074;2022-08-21T00:12:40;18.30;99.90
6373;DHT22;3219;51.362;7.074;2022-08-21T00:15:09;18.30;99.90
6373;DHT22;3219;51.362;7.074;2022-08-21T00:17:36;18.10;99.90
6373;DHT22;3219;51.362;7.074;2022-08-21T00:20:04;18.10;99.90
6373;DHT22;3219;51.362;7.074;2022-08-21T00:22:31;18.10;99.90
6373;DHT22;3219;51.362;7.074;2022-08-21T00:24:58;18.00;99.90
6373;DHT22;3219;51.362;7.074;2022-08-21T00:27:26;17.90;99.90
6373;DHT22;3219;51.362;7.074;2022-08-21T00:29:53;17.90;99.90
6373;DHT22;3219;51.362;7.074;2022-08-21T00:32:21;17.80;99.90
6373;DHT22;3219;51.362;7.074;2022-08-21T00:34:48;17.80;99.90
6373;DHT22;3219;51.362;7.074;2022-08-21T00:39:42;17.50;99.90
6373;DHT22;3219;51.362;7.074;2022-08-21T00:42:09;17.60;99.90
6373;DHT22;3219;51.362;7.074;2022-08-21T00:44:41;17.30;99.90
6373;DHT22;3219;51.362;7.074;2022-08-21T00:47:08;17.50;99.90
6373;DHT22;3219;51.362;7.074;2022-08-21T00:49:34;17.40;99.90
6373;DHT22;3219;51.362;7.074;2022-08-21T00:52:02;17.40;99.90
6373;DHT22;3219;51.362;7.074;2022-08-21T00:54:31;17.20;99.90
6373;DHT22;3219;51.362;7.074;2022-08-21T00:57:01;17.40;99.90
6373;DHT22;3219;51.362;7.074;2022-08-21T00:59:31;17.40;99.90
6373;DHT22;3219;51.362;7.074;2022-08-21T01:02:00;17.40;99.90
6373;DHT22;3219;51.362;7.074;2022-08-21T01:04:27;17.40;99.90
6373;DHT22;3219;51.362;7.074;2022-08-21T01:06:54;17.40;99.90
6373;DHT22;3219;51.362;7.074;2022-08-21T01:09:21;17.40;99.90
6373;DHT22;3219;51.362;7.074;2022-08-21T01:11:48;17.40;99.90
6373;DHT22;3219;51.362;7.074;2022-08-21T01:14:15;17.40;99.90
6373;DHT22;3219;51.362;7.074;2022-08-21T01:16:46;17.50;99.90
6373;DHT22;3219;51.362;7.074;2022-08-21T01:19:14;17.30;99.90
6373;DHT22;3219;51.362;7.074;2022-08-21T01:21:43;17.40;99.90
6373;DHT22;3219;51.362;7.074;2022-08-21T01:24:11;17.50;99.90
6373;DHT22;3219;51.362;7.074;2022-08-21T01:26:39;17.50;99.90
6373;DHT22;3219;51.362;7.074;2022-08-21T01:29:11;17.50;99.90
6373;DHT22;3219;51.362;7.074;2022-08-21T01:31:39;17.50;99.90
6373;DHT22;3219;51.362;7.074;2022-08-21T01:34:06;17.50;99.90
6373;DHT22;3219;51.362;7.074;2022-08-21T01:36:34;17.50;99.90
6373;DHT22;3219;51.362;7.074;2022-08-21T01:56:17;17.30;99.90
6373;DHT22;3219;51.362;7.074;2022-08-21T02:35:52;16.70;99.90
6373;DHT22;3219;51.362;7.074;2022-08-21T02:38:23;16.90;99.90
6373;DHT22;3219;51.362;7.074;2022-08-21T02:40:52;16.70;99.90
6373;DHT22;3219;51.362;7.074;2022-08-21T02:43:20;16.90;99.90
6373;DHT22;3219;51.362;7.074;2022-08-21T02:45:48;17.00;99.90
6373;DHT22;3219;51.362;7.074;2022-08-21T02:48:18;17.00;99.90
6373;DHT22;3219;51.362;7.074;2022-08-21T02:50:51;16.90;99.90
6373;DHT22;3219;51.362;7.074;2022-08-21T02:53:18;17.00;99.90
6373;DHT22;3219;51.362;7.074;2022-08-21T02:55:46;17.00;99.90
6373;DHT22;3219;51.362;7.074;2022-08-21T02:58:15;17.00;99.90
6373;DHT22;3219;51.362;7.074;2022-08-21T03:00:42;17.00;99.90
6373;DHT22;3219;51.362;7.074;2022-08-21T03:03:09;16.80;99.90
6373;DHT22;3219;51.362;7.074;2022-08-21T03:05:39;17.10;99.90
6373;DHT22;3219;51.362;7.074;2022-08-21T03:08:08;17.10;99.90
6373;DHT22;3219;51.362;7.074;2022-08-21T03:10:36;17.10;99.90
6373;DHT22;3219;51.362;7.074;2022-08-21T03:13:03;17.20;99.90
6373;DHT22;3219;51.362;7.074;2022-08-21T03:15:30;17.20;99.90
6373;DHT22;3219;51.362;7.074;2022-08-21T03:17:57;17.20;99.90
6373;DHT22;3219;51.362;7.074;2022-08-21T03:20:26;17.20;99.90
6373;DHT22;3219;51.362;7.074;2022-08-21T03:22:55;17.30;99.90
6373;DHT22;3219;51.362;7.074;2022-08-21T03:25:23;17.20;99.90
6373;DHT22;3219;51.362;7.074;2022-08-21T03:30:19;17.00;99.90
6373;DHT22;3219;51.362;7.074;2022-08-21T03:32:48;17.20;99.90
6373;DHT22;3219;51.362;7.074;2022-08-21T03:50:06;16.80;99.90
6373;DHT22;3219;51.362;7.074;2022-08-21T03:52:33;17.00;99.90
6373;DHT22;3219;51.362;7.074;2022-08-21T03:54:59;16.90;99.90
6373;DHT22;3219;51.362;7.074;2022-08-21T03:57:27;16.90;99.90
6373;DHT22;3219;51.362;7.074;2022-08-21T03:59:54;16.90;99.90
6373;DHT22;3219;51.362;7.074;2022-08-21T05:48:36;25.30;99.90
6373;DHT22;3219;51.362;7.074;2022-08-21T05:51:05;25.80;99.90
6373;DHT22;3219;51.362;7.074;2022-08-21T05:53:32;25.80;99.90
6373;DHT22;3219;51.362;7.074;2022-08-21T05:55:59;25.70;99.90
6373;DHT22;3219;51.362;7.074;2022-08-21T05:58:31;25.50;99.90
6373;DHT22;3219;51.362;7.074;2022-08-21T06:01:00;25.70;99.90
6373;DHT22;3219;51.362;7.074;2022-08-21T06:03:29;26.30;99.90
6373;DHT22;3219;51.362;7.074;2022-08-21T06:05:57;27.50;99.90
6373;DHT22;3219;51.362;7.074;2022-08-21T06:40:39;35.40;88.30
6373;DHT22;3219;51.362;7.074;2022-08-21T06:43:08;35.50;90.50
6373;DHT22;3219;51.362;7.074;2022-08-21T06:45:35;36.00;90.30
6373;DHT22;3219;51.362;7.074;2022-08-21T06:48:03;36.50;90.40
6373;DHT22;3219;51.362;7.074;2022-08-21T06:50:31;36.30;89.50
6373;DHT22;3219;51.362;7.074;2022-08-21T06:52:59;36.60;90.30
6373;DHT22;3219;51.362;7.074;2022-08-21T06:55:26;36.80;90.70
6373;DHT22;3219;51.362;7.074;2022-08-21T08:01:57;36.90;91.20
6373;DHT22;3219;51.362;7.074;2022-08-21T08:04:25;36.80;91.00
6373;DHT22;3219;51.362;7.074;2022-08-21T08:06:52;36.70;90.80
6373;DHT22;3219;51.362;7.074;2022-08-21T08:09:19;36.60;90.70
6373;DHT22;3219;51.362;7.074;2022-08-21T08:11:45;36.50;91.10
6373;DHT22;3219;51.362;7.074;2022-08-21T08:14:12;36.30;91.10
6373;DHT22;3219;51.362;7.074;2022-08-21T08:16:42;36.00;91.20
6373;DHT22;3219;51.362;7.074;2022-08-21T08:19:09;35.10;91.90
6373;DHT22;3219;51.362;7.074;2022-08-21T08:24:05;32.50;93.10
6373;DHT22;3219;51.362;7.074;2022-08-21T08:26:32;30.90;93.10
6373;DHT22;3219;51.362;7.074;2022-08-21T08:28:59;30.20;94.00
6373;DHT22;3219;51.362;7.074;2022-08-21T08:31:26;29.50;94.80
6373;DHT22;3219;51.362;7.074;2022-08-21T08:33:54;28.70;95.60
6373;DHT22;3219;51.362;7.074;2022-08-21T08:36:32;28.30;96.10
6373;DHT22;3219;51.362;7.074;2022-08-21T08:39:00;28.00;96.60
6373;DHT22;3219;51.362;7.074;2022-08-21T08:41:27;27.50;95.90
6373;DHT22;3219;51.362;7.074;2022-08-21T08:43:58;27.30;96.40
6373;DHT22;3219;51.362;7.074;2022-08-21T08:46:31;27.20;96.70
6373;DHT22;3219;51.362;7.074;2022-08-21T08:49:06;26.90;96.80
6373;DHT22;3219;51.362;7.074;2022-08-21T08:51:40;26.90;96.90
6373;DHT22;3219;51.362;7.074;2022-08-21T08:54:12;26.80;96.80
6373;DHT22;3219;51.362;7.074;2022-08-21T08:56:41;26.70;97.30
6373;DHT22;3219;51.362;7.074;2022-08-21T08:59:15;26.70;97.30
6373;DHT22;3219;51.362;7.074;2022-08-21T09:01:42;26.80;97.10
6373;DHT22;3219;51.362;7.074;2022-08-21T09:04:11;26.80;97.40
6373;DHT22;3219;51.362;7.074;2022-08-21T09:06:53;26.80;97.70
6373;DHT22;3219;51.362;7.074;2022-08-21T09:09:30;26.70;97.90
6373;DHT22;3219;51.362;7.074;2022-08-21T09:12:02;26.80;97.50
6373;DHT22;3219;51.362;7.074;2022-08-21T09:14:41;27.00;97.00
6373;DHT22;3219;51.362;7.074;2022-08-21T09:17:19;27.00;96.30
6373;DHT22;3219;51.362;7.074;2022-08-21T09:20:01;26.70;96.00
6373;DHT22;3219;51.362;7.074;2022-08-21T09:22:37;26.60;96.80
6373;DHT22;3219;51.362;7.074;2022-08-21T09:25:12;26.60;96.90
6373;DHT22;3219;51.362;7.074;2022-08-21T09:27:41;26.70;96.90
6373;DHT22;3219;51.362;7.074;2022-08-21T09:30:10;26.80;96.80
6373;DHT22;3219;51.362;7.074;2022-08-21T09:32:38;26.90;96.70
6373;DHT22;3219;51.362;7.074;2022-08-21T09:35:11;27.10;97.10
6373;DHT22;3219;51.362;7.074;2022-08-21T09:37:50;27.10;96.80
6373;DHT22;3219;51.362;7.074;2022-08-21T09:40:27;27.20;96.80
6373;DHT22;3219;51.362;7.074;2022-08-21T09:42:57;27.20;97.00
6373;DHT22;3219;51.362;7.074;2022-08-21T09:45:24;27.40;97.30
6373;DHT22;3219;51.362;7.074;2022-08-21T09:47:50;27.40;97.50
6373;DHT22;3219;51.362;7.074;2022-08-21T09:52:50;27.30;96.70
6373;DHT22;3219;51.362;7.074;2022-08-21T09:55:22;27.50;96.60
6373;DHT22;3219;51.362;7.074;2022-08-21T09:58:07;27.40;96.90
6373;DHT22;3219;51.362;7.074;2022-08-21T10:08:17;27.20;98.10
6373;DHT22;3219;51.362;7.074;2022-08-21T10:10:44;27.50;98.30
6373;DHT22;3219;51.362;7.074;2022-08-21T10:15:47;27.40;97.90
6373;DHT22;3219;51.362;7.074;2022-08-21T10:18:24;27.70;97.00
6373;DHT22;3219;51.362;7.074;2022-08-21T10:20:59;27.80;96.60
6373;DHT22;3219;51.362;7.074;2022-08-21T10:23:41;27.70;96.80
6373;DHT22;3219;51.362;7.074;2022-08-21T10:26:27;27.70;97.30
6373;DHT22;3219;51.362;7.074;2022-08-21T10:29:02;27.70;96.70
6373;DHT22;3219;51.362;7.074;2022-08-21T10:31:36;27.60;97.10
6373;DHT22;3219;51.362;7.074;2022-08-21T10:34:17;27.60;96.90
6373;DHT22;3219;51.362;7.074;2022-08-21T10:36:56;27.40;96.70
6373;DHT22;3219;51.362;7.074;2022-08-21T10:39:32;27.40;96.90
6373;DHT22;3219;51.362;7.074;2022-08-21T10:42:15;27.30;96.90
6373;DHT22;3219;51.362;7.074;2022-08-21T10:44:49;27.30;97.00
6373;DHT22;3219;51.362;7.074;2022-08-21T10:47:28;27.30;97.10
6373;DHT22;3219;51.362;7.074;2022-08-21T10:50:03;27.30;97.50
6373;DHT22;3219;51.362;7.074;2022-08-21T10:52:45;27.30;97.60
6373;DHT22;3219;51.362;7.074;2022-08-21T10:55:15;27.30;97.70
6373;DHT22;3219;51.362;7.074;2022-08-21T10:57:46;27.30;97.70
6373;DHT22;3219;51.362;7.074;2022-08-21T11:00:15;27.40;98.20
6373;DHT22;3219;51.362;7.074;2022-08-21T11:02:47;27.30;98.10
6373;DHT22;3219;51.362;7.074;2022-08-21T11:05:18;27.30;98.50
6373;DHT22;3219;51.362;7.074;2022-08-21T11:07:53;27.30;98.50
6373;DHT22;3219;51.362;7.074;2022-08-21T11:10:24;27.10;98.40
6373;DHT22;3219;51.362;7.074;2022-08-21T11:12:54;27.10;98.70
6373;DHT22;3219;51.362;7.074;2022-08-21T11:20:36;26.90;98.30
6373;DHT22;3219;51.362;7.074;2022-08-21T11:23:08;26.90;98.10
6373;DHT22;3219;51.362;7.074;2022-08-21T11:25:42;26.80;98.20
6373;DHT22;3219;51.362;7.074;2022-08-21T11:28:27;26.80;98.60
6373;DHT22;3219;51.362;7.074;2022-08-21T11:31:02;26.60;98.70
6373;DHT22;3219;51.362;7.074;2022-08-21T11:33:41;26.40;98.40
6373;DHT22;3219;51.362;7.074;2022-08-21T12:46:57;26.60;96.00
6373;DHT22;3219;51.362;7.074;2022-08-21T12:49:28;26.50;97.10
6373;DHT22;3219;51.362;7.074;2022-08-21T12:52:01;26.30;97.40
6373;DHT22;3219;51.362;7.074;2022-08-21T12:54:29;26.30;98.00
6373;DHT22;3219;51.362;7.074;2022-08-21T12:56:59;26.30;98.20
6373;DHT22;3219;51.362;7.074;2022-08-21T12:59:27;26.30;98.20
6373;DHT22;3219;51.362;7.074;2022-08-21T13:01:54;26.30;98.40
6373;DHT22;3219;51.362;7.074;2022-08-21T13:04:27;26.30;98.40
6373;DHT22;3219;51.362;7.074;2022-08-21T13:06:58;26.30;98.60
6373;DHT22;3219;51.362;7.074;2022-08-21T13:09:28;26.30;98.30
6373;DHT22;3219;51.362;7.074;2022-08-21T13:11:57;26.30;97.90
6373;DHT22;3219;51.362;7.074;2022-08-21T13:14:28;26.30;98.20
6373;DHT22;3219;51.362;7.074;2022-08-21T13:16:56;26.30;98.50
6373;DHT22;3219;51.362;7.074;2022-08-21T13:19:24;26.30;98.00
6373;DHT22;3219;51.362;7.074;2022-08-21T13:21:51;26.30;97.50
6373;DHT22;3219;51.362;7.074;2022-08-21T13:24:21;26.30;97.90
6373;DHT22;3219;51.362;7.074;2022-08-21T13:26:48;26.30;97.80
6373;DHT22;3219;51.362;7.074;2022-08-21T13:29:18;26.40;97.50
6373;DHT22;3219;51.362;7.074;2022-08-21T13:31:49;26.30;97.40
6373;DHT22;3219;51.362;7.074;2022-08-21T13:34:18;26.40;97.00
6373;DHT22;3219;51.362;7.074;2022-08-21T13:36:46;26.30;96.80
6373;DHT22;3219;51.362;7.074;2022-08-21T13:39:17;26.30;97.50
6373;DHT22;3219;51.362;7.074;2022-08-21T13:41:47;26.20;98.00
6373;DHT22;3219;51.362;7.074;2022-08-21T13:44:19;26.10;98.10
6373;DHT22;3219;51.362;7.074;2022-08-21T13:46:47;26.10;98.30
6373;DHT22;3219;51.362;7.074;2022-08-21T13:49:16;26.10;99.00
6373;DHT22;3219;51.362;7.074;2022-08-21T13:51:44;26.10;98.80
6373;DHT22;3219;51.362;7.074;2022-08-21T13:54:23;26.10;98.50
6373;DHT22;3219;51.362;7.074;2022-08-21T13:56:51;26.20;99.10
6373;DHT22;3219;51.362;7.074;2022-08-21T13:59:27;26.20;98.90
6373;DHT22;3219;51.362;7.074;2022-08-21T14:01:56;26.20;98.70
6373;DHT22;3219;51.362;7.074;2022-08-21T14:04:31;26.20;98.90
6373;DHT22;3219;51.362;7.074;2022-08-21T14:06:59;26.20;98.80
6373;DHT22;3219;51.362;7.074;2022-08-21T14:09:29;26.20;99.20
6373;DHT22;3219;51.362;7.074;2022-08-21T14:11:58;26.30;98.20
6373;DHT22;3219;51.362;7.074;2022-08-21T14:14:29;26.20;98.10
6373;DHT22;3219;51.362;7.074;2022-08-21T14:16:59;26.10;98.30
6373;DHT22;3219;51.362;7.074;2022-08-21T14:19:27;26.10;98.70
6373;DHT22;3219;51.362;7.074;2022-08-21T14:21:54;26.10;99.10
6373;DHT22;3219;51.362;7.074;2022-08-21T14:24:27;26.20;99.20
6373;DHT22;3219;51.362;7.074;2022-08-21T14:26:57;26.20;98.10
6373;DHT22;3219;51.362;7.074;2022-08-21T14:29:35;26.10;98.30
6373;DHT22;3219;51.362;7.074;2022-08-21T14:32:12;26.00;98.40
6373;DHT22;3219;51.362;7.074;2022-08-21T14:34:39;26.00;98.70
6373;DHT22;3219;51.362;7.074;2022-08-21T14:37:06;26.00;98.80
6373;DHT22;3219;51.362;7.074;2022-08-21T14:39:33;25.90;99.00
6373;DHT22;3219;51.362;7.074;2022-08-21T14:42:00;26.00;99.20
6373;DHT22;3219;51.362;7.074;2022-08-21T14:44:28;25.90;98.90
6373;DHT22;3219;51.362;7.074;2022-08-21T14:46:58;26.20;99.10
6373;DHT22;3219;51.362;7.074;2022-08-21T14:51:53;26.10;99.00
6373;DHT22;3219;51.362;7.074;2022-08-21T14:54:22;26.30;99.30
6373;DHT22;3219;51.362;7.074;2022-08-21T14:59:16;26.30;99.40
